sensor_id;sensor_type;location;lat;lon;timestamp;temperature;humidity
5806;DHT22;2929;50.810;8.342;2023-05-14T00:01:23;7.60;99.90
5806;DHT22;2929;50.810;8.342;2023-05-14T00:03:51;7.50;99.90
5806;DHT22;2929;50.810;8.342;2023-05-14T00:06:18;7.50;99.90
5806;DHT22;2929;50.810;8.342;2023-05-14T00:08:45;7.40;99.90
5806;DHT22;2929;50.810;8.342;2023-05-14T00:11:12;7.30;99.90
5806;DHT22;2929;50.810;8.342;2023-05-14T00:13:39;7.30;99.90
5806;DHT22;2929;50.810;8.342;2023-05-14T00:16:06;7.40;99.90
5806;DHT22;2929;50.810;8.342;2023-05-14T00:18:33;7.50;99.90
5806;DHT22;2929;50.810;8.342;2023-05-14T00:21:01;7.50;99.90
5806;DHT22;2929;50.810;8.342;2023-05-14T00:23:28;7.50;99.90
5806;DHT22;2929;50.810;8.342;2023-05-14T00:25:55;7.50;99.90
5806;DHT22;2929;50.810;8.342;2023-05-14T00:28:22;7.50;99.90
5806;DHT22;2929;50.810;8.342;2023-05-14T00:30:50;7.50;99.90
5806;DHT22;2929;50.810;8.342;2023-05-14T00:33:17;7.40;99.90
5806;DHT22;2929;50.810;8.342;2023-05-14T00:35:44;7.50;99.90
5806;DHT22;2929;50.810;8.342;2023-05-14T00:38:12;7.50;99.90
5806;DHT22;2929;50.810;8.342;2023-05-14T00:40:42;7.40;99.90
5806;DHT22;2929;50.810;8.342;2023-05-14T00:43:15;7.40;99.90
5806;DHT22;2929;50.810;8.342;2023-05-14T00:45:42;7.40;99.90
5806;DHT22;2929;50.810;8.342;2023-05-14T00:48:09;7.30;99.90
5806;DHT22;2929;50.810;8.342;2023-05-14T00:50:37;7.20;99.90
5806;DHT22;2929;50.810;8.342;2023-05-14T00:53:07;7.20;99.90
5806;DHT22;2929;50.810;8.342;2023-05-14T00:55:37;7.10;99.90
5806;DHT22;2929;50.810;8.342;2023-05-14T00:58:06;7.20;99.90
5806;DHT22;2929;50.810;8.342;2023-05-14T01:00:35;7.10;99.90
5806;DHT22;2929;50.810;8.342;2023-05-14T01:03:02;7.00;99.90
5806;DHT22;2929;50.810;8.342;2023-05-14T01:05:40;7.00;99.90
5806;DHT22;2929;50.810;8.342;2023-05-14T01:08:12;6.90;99.90
5806;DHT22;2929;50.810;8.342;2023-05-14T01:10:48;6.90;99.90
5806;DHT22;2929;50.810;8.342;2023-05-14T01:13:23;6.80;99.90
5806;DHT22;2929;50.810;8.342;2023-05-14T01:15:54;6.70;99.90
5806;DHT22;2929;50.810;8.342;2023-05-14T01:18:22;6.70;99.90
5806;DHT22;2929;50.810;8.342;2023-05-14T01:20:50;6.80;99.90
5806;DHT22;2929;50.810;8.342;2023-05-14T01:23:19;6.80;99.90
5806;DHT22;2929;50.810;8.342;2023-05-14T01:25:46;6.80;99.90
5806;DHT22;2929;50.810;8.342;2023-05-14T01:28:16;6.80;99.90
5806;DHT22;2929;50.810;8.342;2023-05-14T01:30:48;6.80;99.90
5806;DHT22;2929;50.810;8.342;2023-05-14T01:33:18;6.80;99.90
5806;DHT22;2929;50.810;8.342;2023-05-14T01:35:48;6.90;99.90
5806;DHT22;2929;50.810;8.342;2023-05-14T01:38:19;6.90;99.90
5806;DHT22;2929;50.810;8.342;2023-05-14T01:40:48;6.90;99.90
5806;DHT22;2929;50.810;8.342;2023-05-14T01:43:16;6.80;99.90
5806;DHT22;2929;50.810;8.342;2023-05-14T01:45:43;6.80;99.90
5806;DHT22;2929;50.810;8.342;2023-05-14T01:48:10;6.60;99.90
5806;DHT22;2929;50.810;8.342;2023-05-14T01:50:44;6.60;99.90
5806;DHT22;2929;50.810;8.342;2023-05-14T01:53:11;6.60;99.90
5806;DHT22;2929;50.810;8.342;2023-05-14T01:55:39;6.60;99.90
5806;DHT22;2929;50.810;8.342;2023-05-14T01:58:06;6.60;99.90
5806;DHT22;2929;50.810;8.342;2023-05-14T02:00:33;6.70;99.90
5806;DHT22;2929;50.810;8.342;2023-05-14T02:03:00;6.60;99.90
5806;DHT22;2929;50.810;8.342;2023-05-14T02:05:28;6.50;99.90
5806;DHT22;2929;50.810;8.342;2023-05-14T02:07:54;6.50;99.90
5806;DHT22;2929;50.810;8.342;2023-05-14T02:10:21;6.40;99.90
5806;DHT22;2929;50.810;8.342;2023-05-14T02:12:50;6.40;99.90
5806;DHT22;2929;50.810;8.342;2023-05-14T02:15:17;6.40;99.90
5806;DHT22;2929;50.810;8.342;2023-05-14T02:17:44;6.40;99.90
5806;DHT22;2929;50.810;8.342;2023-05-14T02:20:12;6.30;99.90
5806;DHT22;2929;50.810;8.342;2023-05-14T02:22:39;6.40;99.90
5806;DHT22;2929;50.810;8.342;2023-05-14T02:25:08;6.30;99.90
5806;DHT22;2929;50.810;8.342;2023-05-14T02:27:35;6.40;99.90
5806;DHT22;2929;50.810;8.342;2023-05-14T02:30:04;6.50;99.90
5806;DHT22;2929;50.810;8.342;2023-05-14T02:32:31;6.60;99.90
5806;DHT22;2929;50.810;8.342;2023-05-14T02:34:58;6.60;99.90
5806;DHT22;2929;50.810;8.342;2023-05-14T02:37:26;6.60;99.90
5806;DHT22;2929;50.810;8.342;2023-05-14T02:39:53;6.40;99.90
5806;DHT22;2929;50.810;8.342;2023-05-14T02:42:21;6.40;99.90
5806;DHT22;2929;50.810;8.342;2023-05-14T02:44:50;6.40;99.90
5806;DHT22;2929;50.810;8.342;2023-05-14T02:47:18;6.40;99.90
5806;DHT22;2929;50.810;8.342;2023-05-14T02:49:46;6.30;99.90
5806;DHT22;2929;50.810;8.342;2023-05-14T02:52:13;6.20;99.90
5806;DHT22;2929;50.810;8.342;2023-05-14T02:54:40;6.20;99.90
5806;DHT22;2929;50.810;8.342;2023-05-14T02:57:07;6.20;99.90
5806;DHT22;2929;50.810;8.342;2023-05-14T02:59:34;6.20;99.90
5806;DHT22;2929;50.810;8.342;2023-05-14T03:02:01;6.20;99.90
5806;DHT22;2929;50.810;8.342;2023-05-14T03:04:30;6.30;99.90
5806;DHT22;2929;50.810;8.342;2023-05-14T03:06:57;6.40;99.90
5806;DHT22;2929;50.810;8.342;2023-05-14T03:09:24;6.40;99.90
5806;DHT22;2929;50.810;8.342;2023-05-14T03:11:51;6.40;99.90
5806;DHT22;2929;50.810;8.342;2023-05-14T03:14:18;6.40;99.90
5806;DHT22;2929;50.810;8.342;2023-05-14T03:16:45;6.30;99.90
5806;DHT22;2929;50.810;8.342;2023-05-14T03:19:12;6.40;99.90
5806;DHT22;2929;50.810;8.342;2023-05-14T03:21:41;6.30;99.90
5806;DHT22;2929;50.810;8.342;2023-05-14T03:24:08;6.30;99.90
5806;DHT22;2929;50.810;8.342;2023-05-14T03:26:35;6.30;99.90
5806;DHT22;2929;50.810;8.342;2023-05-14T03:29:02;6.30;99.90
5806;DHT22;2929;50.810;8.342;2023-05-14T03:31:29;6.30;99.90
5806;DHT22;2929;50.810;8.342;2023-05-14T03:33:56;6.20;99.90
5806;DHT22;2929;50.810;8.342;2023-05-14T03:36:23;6.00;99.90
5806;DHT22;2929;50.810;8.342;2023-05-14T03:38:53;5.90;99.90
5806;DHT22;2929;50.810;8.342;2023-05-14T03:41:20;5.90;99.90
5806;DHT22;2929;50.810;8.342;2023-05-14T03:43:47;5.80;99.90
5806;DHT22;2929;50.810;8.342;2023-05-14T03:46:14;5.90;99.90
5806;DHT22;2929;50.810;8.342;2023-05-14T03:48:41;5.70;99.90
5806;DHT22;2929;50.810;8.342;2023-05-14T03:51:08;5.80;99.90
5806;DHT22;2929;50.810;8.342;2023-05-14T03:53:35;5.90;99.90
5806;DHT22;2929;50.810;8.342;2023-05-14T03:56:04;5.90;99.90
5806;DHT22;2929;50.810;8.342;2023-05-14T03:58:31;6.00;99.90
5806;DHT22;2929;50.810;8.342;2023-05-14T04:00:59;6.00;99.90
5806;DHT22;2929;50.810;8.342;2023-05-14T04:03:26;5.90;99.90
5806;DHT22;2929;50.810;8.342;2023-05-14T04:05:53;5.90;99.90
5806;DHT22;2929;50.810;8.342;2023-05-14T04:08:20;5.90;99.90
5806;DHT22;2929;50.810;8.342;2023-05-14T04:10:48;5.90;99.90
5806;DHT22;2929;50.810;8.342;2023-05-14T04:13:17;5.80;99.90
5806;DHT22;2929;50.810;8.342;2023-05-14T04:15:44;5.90;99.90
5806;DHT22;2929;50.810;8.342;2023-05-14T04:18:12;5.90;99.90
5806;DHT22;2929;50.810;8.342;2023-05-14T04:20:39;5.90;99.90
5806;DHT22;2929;50.810;8.342;2023-05-14T04:23:06;5.90;99.90
5806;DHT22;2929;50.810;8.342;2023-05-14T04:25:33;5.90;99.90
5806;DHT22;2929;50.810;8.342;2023-05-14T04:28:00;5.90;99.90
5806;DHT22;2929;50.810;8.342;2023-05-14T04:30:28;5.90;99.90
5806;DHT22;2929;50.810;8.342;2023-05-14T04:32:55;5.90;99.90
5806;DHT22;2929;50.810;8.342;2023-05-14T04:35:23;5.90;99.90
5806;DHT22;2929;50.810;8.342;2023-05-14T04:37:50;5.90;99.90
5806;DHT22;2929;50.810;8.342;2023-05-14T04:40:17;5.90;99.90
5806;DHT22;2929;50.810;8.342;2023-05-14T04:42:44;5.90;99.90
5806;DHT22;2929;50.810;8.342;2023-05-14T04:45:11;6.10;99.90
5806;DHT22;2929;50.810;8.342;2023-05-14T04:47:40;6.10;99.90
5806;DHT22;2929;50.810;8.342;2023-05-14T04:50:08;6.10;99.90
5806;DHT22;2929;50.810;8.342;2023-05-14T04:52:35;6.10;99.90
5806;DHT22;2929;50.810;8.342;2023-05-14T04:55:02;6.20;99.90
5806;DHT22;2929;50.810;8.342;2023-05-14T04:57:29;6.20;99.90
5806;DHT22;2929;50.810;8.342;2023-05-14T04:59:56;6.30;99.90
5806;DHT22;2929;50.810;8.342;2023-05-14T05:02:23;6.30;99.90
5806;DHT22;2929;50.810;8.342;2023-05-14T05:04:52;6.40;99.90
5806;DHT22;2929;50.810;8.342;2023-05-14T05:07:19;6.50;99.90
5806;DHT22;2929;50.810;8.342;2023-05-14T05:09:46;6.50;99.90
5806;DHT22;2929;50.810;8.342;2023-05-14T05:12:13;6.50;99.90
5806;DHT22;2929;50.810;8.342;2023-05-14T05:14:40;6.60;99.90
5806;DHT22;2929;50.810;8.342;2023-05-14T05:17:07;6.60;99.90
5806;DHT22;2929;50.810;8.342;2023-05-14T05:19:36;6.70;99.90
5806;DHT22;2929;50.810;8.342;2023-05-14T05:22:05;6.70;99.90
5806;DHT22;2929;50.810;8.342;2023-05-14T05:24:32;6.80;99.90
5806;DHT22;2929;50.810;8.342;2023-05-14T05:26:59;6.90;99.90
5806;DHT22;2929;50.810;8.342;2023-05-14T05:29:26;7.00;99.90
5806;DHT22;2929;50.810;8.342;2023-05-14T05:31:53;7.10;99.90
5806;DHT22;2929;50.810;8.342;2023-05-14T05:34:20;7.20;99.90
5806;DHT22;2929;50.810;8.342;2023-05-14T05:36:47;7.30;99.90
5806;DHT22;2929;50.810;8.342;2023-05-14T05:39:15;7.40;99.90
5806;DHT22;2929;50.810;8.342;2023-05-14T05:41:42;7.50;99.90
5806;DHT22;2929;50.810;8.342;2023-05-14T05:44:09;7.70;99.90
5806;DHT22;2929;50.810;8.342;2023-05-14T05:46:36;7.70;99.90
5806;DHT22;2929;50.810;8.342;2023-05-14T05:49:03;7.80;99.90
5806;DHT22;2929;50.810;8.342;2023-05-14T05:51:30;8.00;99.90
5806;DHT22;2929;50.810;8.342;2023-05-14T05:53:57;8.10;99.90
5806;DHT22;2929;50.810;8.342;2023-05-14T05:56:26;8.20;99.90
5806;DHT22;2929;50.810;8.342;2023-05-14T05:58:53;8.40;99.90
5806;DHT22;2929;50.810;8.342;2023-05-14T06:01:20;8.50;99.90
5806;DHT22;2929;50.810;8.342;2023-05-14T06:03:47;8.70;99.90
5806;DHT22;2929;50.810;8.342;2023-05-14T06:06:14;8.80;99.90
5806;DHT22;2929;50.810;8.342;2023-05-14T06:08:41;8.90;99.90
5806;DHT22;2929;50.810;8.342;2023-05-14T06:11:08;9.20;99.90
5806;DHT22;2929;50.810;8.342;2023-05-14T06:13:36;9.30;99.90
5806;DHT22;2929;50.810;8.342;2023-05-14T06:16:03;9.50;99.90
5806;DHT22;2929;50.810;8.342;2023-05-14T06:18:31;9.70;99.90
5806;DHT22;2929;50.810;8.342;2023-05-14T06:20:58;9.90;99.90
5806;DHT22;2929;50.810;8.342;2023-05-14T06:23:28;10.00;99.90
5806;DHT22;2929;50.810;8.342;2023-05-14T06:25:55;10.00;99.90
5806;DHT22;2929;50.810;8.342;2023-05-14T06:28:22;10.10;99.90
5806;DHT22;2929;50.810;8.342;2023-05-14T06:30:50;10.20;99.90
5806;DHT22;2929;50.810;8.342;2023-05-14T06:33:18;10.30;99.90
5806;DHT22;2929;50.810;8.342;2023-05-14T06:35:54;10.50;99.90
5806;DHT22;2929;50.810;8.342;2023-05-14T06:38:21;10.60;99.90
5806;DHT22;2929;50.810;8.342;2023-05-14T06:40:48;10.80;99.90
5806;DHT22;2929;50.810;8.342;2023-05-14T06:43:15;10.90;99.90
5806;DHT22;2929;50.810;8.342;2023-05-14T06:45:42;10.90;99.90
5806;DHT22;2929;50.810;8.342;2023-05-14T06:48:11;11.00;99.90
5806;DHT22;2929;50.810;8.342;2023-05-14T06:50:38;11.10;99.90
5806;DHT22;2929;50.810;8.342;2023-05-14T06:53:05;11.20;99.90
5806;DHT22;2929;50.810;8.342;2023-05-14T06:55:32;11.30;99.90
5806;DHT22;2929;50.810;8.342;2023-05-14T06:58:00;11.30;99.90
5806;DHT22;2929;50.810;8.342;2023-05-14T07:00:27;11.40;99.90
5806;DHT22;2929;50.810;8.342;2023-05-14T07:02:54;11.50;99.90
5806;DHT22;2929;50.810;8.342;2023-05-14T07:05:23;11.50;99.90
5806;DHT22;2929;50.810;8.342;2023-05-14T07:07:50;11.60;99.90
5806;DHT22;2929;50.810;8.342;2023-05-14T07:10:17;11.70;99.90
5806;DHT22;2929;50.810;8.342;2023-05-14T07:12:44;11.70;99.90
5806;DHT22;2929;50.810;8.342;2023-05-14T07:15:11;11.80;99.90
5806;DHT22;2929;50.810;8.342;2023-05-14T07:17:38;11.90;99.90
5806;DHT22;2929;50.810;8.342;2023-05-14T07:20:06;12.00;99.90
5806;DHT22;2929;50.810;8.342;2023-05-14T07:22:34;12.00;99.90
5806;DHT22;2929;50.810;8.342;2023-05-14T07:25:02;12.10;99.90
5806;DHT22;2929;50.810;8.342;2023-05-14T07:27:29;12.10;99.90
5806;DHT22;2929;50.810;8.342;2023-05-14T07:29:55;12.20;99.90
5806;DHT22;2929;50.810;8.342;2023-05-14T07:32:22;12.40;99.90
5806;DHT22;2929;50.810;8.342;2023-05-14T07:34:50;12.50;99.90
5806;DHT22;2929;50.810;8.342;2023-05-14T07:37:17;12.70;99.90
5806;DHT22;2929;50.810;8.342;2023-05-14T07:39:45;13.00;99.90
5806;DHT22;2929;50.810;8.342;2023-05-14T07:42:12;13.20;99.90
5806;DHT22;2929;50.810;8.342;2023-05-14T07:44:39;13.30;99.90
5806;DHT22;2929;50.810;8.342;2023-05-14T07:47:06;13.40;99.90
5806;DHT22;2929;50.810;8.342;2023-05-14T07:49:34;13.50;99.90
5806;DHT22;2929;50.810;8.342;2023-05-14T07:52:01;13.50;99.90
5806;DHT22;2929;50.810;8.342;2023-05-14T07:54:28;13.60;99.90
5806;DHT22;2929;50.810;8.342;2023-05-14T07:56:56;13.50;99.90
5806;DHT22;2929;50.810;8.342;2023-05-14T07:59:23;13.60;99.90
5806;DHT22;2929;50.810;8.342;2023-05-14T08:01:50;13.50;99.90
5806;DHT22;2929;50.810;8.342;2023-05-14T08:04:17;13.60;99.90
5806;DHT22;2929;50.810;8.342;2023-05-14T08:06:45;13.70;99.90
5806;DHT22;2929;50.810;8.342;2023-05-14T08:09:12;13.90;99.90
5806;DHT22;2929;50.810;8.342;2023-05-14T08:11:39;13.90;99.90
5806;DHT22;2929;50.810;8.342;2023-05-14T08:14:07;14.00;99.90
5806;DHT22;2929;50.810;8.342;2023-05-14T08:16:34;14.10;99.90
5806;DHT22;2929;50.810;8.342;2023-05-14T08:19:01;14.20;99.90
5806;DHT22;2929;50.810;8.342;2023-05-14T08:21:29;14.40;99.90
5806;DHT22;2929;50.810;8.342;2023-05-14T08:23:57;14.30;99.90
5806;DHT22;2929;50.810;8.342;2023-05-14T08:26:24;14.50;99.90
5806;DHT22;2929;50.810;8.342;2023-05-14T08:28:52;14.50;99.90
5806;DHT22;2929;50.810;8.342;2023-05-14T08:31:20;14.50;99.90
5806;DHT22;2929;50.810;8.342;2023-05-14T08:33:47;14.40;99.90
5806;DHT22;2929;50.810;8.342;2023-05-14T08:36:15;14.40;99.90
5806;DHT22;2929;50.810;8.342;2023-05-14T08:38:42;14.60;99.90
5806;DHT22;2929;50.810;8.342;2023-05-14T08:41:10;14.90;99.90
5806;DHT22;2929;50.810;8.342;2023-05-14T08:43:43;14.80;99.90
5806;DHT22;2929;50.810;8.342;2023-05-14T08:46:12;15.20;99.90
5806;DHT22;2929;50.810;8.342;2023-05-14T08:48:42;15.20;99.90
5806;DHT22;2929;50.810;8.342;2023-05-14T08:51:13;15.40;99.90
5806;DHT22;2929;50.810;8.342;2023-05-14T08:53:41;15.50;99.90
5806;DHT22;2929;50.810;8.342;2023-05-14T08:56:09;15.60;99.90
5806;DHT22;2929;50.810;8.342;2023-05-14T08:58:37;15.80;99.90
5806;DHT22;2929;50.810;8.342;2023-05-14T09:01:05;15.90;99.90
5806;DHT22;2929;50.810;8.342;2023-05-14T09:03:33;16.00;99.90
5806;DHT22;2929;50.810;8.342;2023-05-14T09:06:03;15.90;99.90
5806;DHT22;2929;50.810;8.342;2023-05-14T09:08:30;15.70;99.90
5806;DHT22;2929;50.810;8.342;2023-05-14T09:10:58;15.80;99.90
5806;DHT22;2929;50.810;8.342;2023-05-14T09:13:25;15.70;99.90
5806;DHT22;2929;50.810;8.342;2023-05-14T09:15:53;15.60;99.90
5806;DHT22;2929;50.810;8.342;2023-05-14T09:18:21;15.80;99.90
5806;DHT22;2929;50.810;8.342;2023-05-14T09:20:49;15.80;99.90
5806;DHT22;2929;50.810;8.342;2023-05-14T09:23:18;15.90;99.90
5806;DHT22;2929;50.810;8.342;2023-05-14T09:25:46;16.10;99.90
5806;DHT22;2929;50.810;8.342;2023-05-14T09:28:16;16.20;99.90
5806;DHT22;2929;50.810;8.342;2023-05-14T09:30:48;16.30;99.90
5806;DHT22;2929;50.810;8.342;2023-05-14T09:33:25;16.50;99.90
5806;DHT22;2929;50.810;8.342;2023-05-14T09:35:57;16.60;99.90
5806;DHT22;2929;50.810;8.342;2023-05-14T09:38:28;16.70;99.90
5806;DHT22;2929;50.810;8.342;2023-05-14T09:40:57;16.80;99.90
5806;DHT22;2929;50.810;8.342;2023-05-14T09:43:28;16.90;99.90
5806;DHT22;2929;50.810;8.342;2023-05-14T09:45:55;17.20;99.90
5806;DHT22;2929;50.810;8.342;2023-05-14T09:48:24;17.10;99.90
5806;DHT22;2929;50.810;8.342;2023-05-14T09:50:51;17.20;99.90
5806;DHT22;2929;50.810;8.342;2023-05-14T09:53:19;17.20;99.90
5806;DHT22;2929;50.810;8.342;2023-05-14T09:55:47;17.30;99.90
5806;DHT22;2929;50.810;8.342;2023-05-14T09:58:15;17.30;99.90
5806;DHT22;2929;50.810;8.342;2023-05-14T10:00:43;17.40;99.90
5806;DHT22;2929;50.810;8.342;2023-05-14T10:03:13;17.30;99.90
5806;DHT22;2929;50.810;8.342;2023-05-14T10:05:41;17.40;99.90
5806;DHT22;2929;50.810;8.342;2023-05-14T10:08:20;17.40;99.90
5806;DHT22;2929;50.810;8.342;2023-05-14T10:10:50;17.30;99.90
5806;DHT22;2929;50.810;8.342;2023-05-14T10:13:22;17.40;99.90
5806;DHT22;2929;50.810;8.342;2023-05-14T10:15:56;17.60;99.90
5806;DHT22;2929;50.810;8.342;2023-05-14T10:18:30;17.60;99.90
5806;DHT22;2929;50.810;8.342;2023-05-14T10:21:03;17.60;99.90
5806;DHT22;2929;50.810;8.342;2023-05-14T10:23:31;17.90;99.90
5806;DHT22;2929;50.810;8.342;2023-05-14T10:25:59;18.00;99.90
5806;DHT22;2929;50.810;8.342;2023-05-14T10:28:27;17.80;99.90
5806;DHT22;2929;50.810;8.342;2023-05-14T10:30:54;17.70;99.90
5806;DHT22;2929;50.810;8.342;2023-05-14T10:33:21;17.60;99.90
5806;DHT22;2929;50.810;8.342;2023-05-14T10:35:57;17.40;99.90
5806;DHT22;2929;50.810;8.342;2023-05-14T10:38:26;17.60;99.90
5806;DHT22;2929;50.810;8.342;2023-05-14T10:41:00;17.90;99.90
5806;DHT22;2929;50.810;8.342;2023-05-14T10:43:28;18.10;99.90
5806;DHT22;2929;50.810;8.342;2023-05-14T10:45:56;17.60;99.90
5806;DHT22;2929;50.810;8.342;2023-05-14T10:48:24;17.80;99.90
5806;DHT22;2929;50.810;8.342;2023-05-14T10:50:52;18.00;99.90
5806;DHT22;2929;50.810;8.342;2023-05-14T10:53:30;18.10;99.90
5806;DHT22;2929;50.810;8.342;2023-05-14T10:55:58;17.90;99.90
5806;DHT22;2929;50.810;8.342;2023-05-14T10:58:30;18.10;99.90
5806;DHT22;2929;50.810;8.342;2023-05-14T11:00:59;18.10;99.90
5806;DHT22;2929;50.810;8.342;2023-05-14T11:03:28;18.10;99.90
5806;DHT22;2929;50.810;8.342;2023-05-14T11:05:56;18.20;99.90
5806;DHT22;2929;50.810;8.342;2023-05-14T11:08:25;18.60;99.90
5806;DHT22;2929;50.810;8.342;2023-05-14T11:10:54;18.70;99.90
5806;DHT22;2929;50.810;8.342;2023-05-14T11:13:22;18.50;99.90
5806;DHT22;2929;50.810;8.342;2023-05-14T11:15:51;18.50;99.90
5806;DHT22;2929;50.810;8.342;2023-05-14T11:18:26;18.30;99.90
5806;DHT22;2929;50.810;8.342;2023-05-14T11:20:53;18.20;99.90
5806;DHT22;2929;50.810;8.342;2023-05-14T11:23:23;17.90;99.90
5806;DHT22;2929;50.810;8.342;2023-05-14T11:25:51;18.20;99.90
5806;DHT22;2929;50.810;8.342;2023-05-14T11:28:19;18.20;99.90
5806;DHT22;2929;50.810;8.342;2023-05-14T11:30:49;18.10;99.90
5806;DHT22;2929;50.810;8.342;2023-05-14T11:33:17;18.20;99.90
5806;DHT22;2929;50.810;8.342;2023-05-14T11:35:45;18.60;99.90
5806;DHT22;2929;50.810;8.342;2023-05-14T11:38:14;18.80;99.90
5806;DHT22;2929;50.810;8.342;2023-05-14T11:40:41;18.60;99.90
5806;DHT22;2929;50.810;8.342;2023-05-14T11:43:08;18.80;99.90
5806;DHT22;2929;50.810;8.342;2023-05-14T11:45:36;18.40;99.90
5806;DHT22;2929;50.810;8.342;2023-05-14T11:48:12;18.10;99.90
5806;DHT22;2929;50.810;8.342;2023-05-14T11:50:44;18.40;99.90
5806;DHT22;2929;50.810;8.342;2023-05-14T11:53:16;18.20;99.90
5806;DHT22;2929;50.810;8.342;2023-05-14T11:55:43;18.30;99.90
5806;DHT22;2929;50.810;8.342;2023-05-14T11:58:10;18.40;99.90
5806;DHT22;2929;50.810;8.342;2023-05-14T12:00:37;19.10;99.90
5806;DHT22;2929;50.810;8.342;2023-05-14T12:03:05;19.40;99.90
5806;DHT22;2929;50.810;8.342;2023-05-14T12:05:36;19.40;99.90
5806;DHT22;2929;50.810;8.342;2023-05-14T12:08:18;19.80;99.90
5806;DHT22;2929;50.810;8.342;2023-05-14T12:10:46;20.00;99.90
5806;DHT22;2929;50.810;8.342;2023-05-14T12:13:14;20.50;99.90
5806;DHT22;2929;50.810;8.342;2023-05-14T12:15:45;20.60;99.90
5806;DHT22;2929;50.810;8.342;2023-05-14T12:18:13;19.90;99.90
5806;DHT22;2929;50.810;8.342;2023-05-14T12:20:47;19.40;99.90
5806;DHT22;2929;50.810;8.342;2023-05-14T12:23:14;18.90;99.90
5806;DHT22;2929;50.810;8.342;2023-05-14T12:25:49;18.70;99.90
5806;DHT22;2929;50.810;8.342;2023-05-14T12:28:17;18.60;99.90
5806;DHT22;2929;50.810;8.342;2023-05-14T12:30:44;18.60;99.90
5806;DHT22;2929;50.810;8.342;2023-05-14T12:33:11;18.50;99.90
5806;DHT22;2929;50.810;8.342;2023-05-14T12:35:39;18.70;99.90
5806;DHT22;2929;50.810;8.342;2023-05-14T12:38:07;18.40;99.90
5806;DHT22;2929;50.810;8.342;2023-05-14T12:40:34;18.40;99.90
5806;DHT22;2929;50.810;8.342;2023-05-14T12:43:02;18.30;99.90
5806;DHT22;2929;50.810;8.342;2023-05-14T12:45:29;18.60;99.90
5806;DHT22;2929;50.810;8.342;2023-05-14T12:47:57;19.40;99.90
5806;DHT22;2929;50.810;8.342;2023-05-14T12:50:25;20.10;99.90
5806;DHT22;2929;50.810;8.342;2023-05-14T12:52:52;20.60;99.90
5806;DHT22;2929;50.810;8.342;2023-05-14T12:55:20;20.90;99.20
5806;DHT22;2929;50.810;8.342;2023-05-14T12:57:47;21.30;96.00
5806;DHT22;2929;50.810;8.342;2023-05-14T13:00:15;21.10;96.00
5806;DHT22;2929;50.810;8.342;2023-05-14T13:02:42;20.80;95.90
5806;DHT22;2929;50.810;8.342;2023-05-14T13:05:09;21.00;95.60
5806;DHT22;2929;50.810;8.342;2023-05-14T13:07:37;21.10;95.30
5806;DHT22;2929;50.810;8.342;2023-05-14T13:10:05;21.10;98.90
5806;DHT22;2929;50.810;8.342;2023-05-14T13:12:35;20.70;99.20
5806;DHT22;2929;50.810;8.342;2023-05-14T13:15:02;21.10;96.30
5806;DHT22;2929;50.810;8.342;2023-05-14T13:17:29;21.80;95.70
5806;DHT22;2929;50.810;8.342;2023-05-14T13:19:56;21.70;96.10
5806;DHT22;2929;50.810;8.342;2023-05-14T13:22:23;21.40;97.20
5806;DHT22;2929;50.810;8.342;2023-05-14T13:24:50;22.20;95.30
5806;DHT22;2929;50.810;8.342;2023-05-14T13:27:17;22.30;96.30
5806;DHT22;2929;50.810;8.342;2023-05-14T13:29:46;22.80;93.90
5806;DHT22;2929;50.810;8.342;2023-05-14T13:32:13;23.30;91.50
5806;DHT22;2929;50.810;8.342;2023-05-14T13:34:40;23.10;91.80
5806;DHT22;2929;50.810;8.342;2023-05-14T13:37:08;22.70;92.70
5806;DHT22;2929;50.810;8.342;2023-05-14T13:39:35;22.20;93.20
5806;DHT22;2929;50.810;8.342;2023-05-14T13:42:03;22.00;95.10
5806;DHT22;2929;50.810;8.342;2023-05-14T13:44:30;21.90;99.90
5806;DHT22;2929;50.810;8.342;2023-05-14T13:46:59;21.80;99.90
5806;DHT22;2929;50.810;8.342;2023-05-14T13:49:26;22.20;99.90
5806;DHT22;2929;50.810;8.342;2023-05-14T13:51:53;22.30;99.90
5806;DHT22;2929;50.810;8.342;2023-05-14T13:54:20;22.20;99.90
5806;DHT22;2929;50.810;8.342;2023-05-14T13:56:47;22.30;99.90
5806;DHT22;2929;50.810;8.342;2023-05-14T13:59:14;22.20;99.90
5806;DHT22;2929;50.810;8.342;2023-05-14T14:01:41;22.10;99.20
5806;DHT22;2929;50.810;8.342;2023-05-14T14:04:10;21.70;99.90
5806;DHT22;2929;50.810;8.342;2023-05-14T14:06:37;21.50;99.90
5806;DHT22;2929;50.810;8.342;2023-05-14T14:09:04;21.50;99.90
5806;DHT22;2929;50.810;8.342;2023-05-14T14:11:31;21.50;99.90
5806;DHT22;2929;50.810;8.342;2023-05-14T14:13:58;21.80;99.90
5806;DHT22;2929;50.810;8.342;2023-05-14T14:16:25;22.40;97.80
5806;DHT22;2929;50.810;8.342;2023-05-14T14:18:53;22.90;96.30
5806;DHT22;2929;50.810;8.342;2023-05-14T14:21:21;23.50;96.20
5806;DHT22;2929;50.810;8.342;2023-05-14T14:23:48;24.10;94.70
5806;DHT22;2929;50.810;8.342;2023-05-14T14:26:15;24.50;91.40
5806;DHT22;2929;50.810;8.342;2023-05-14T14:28:43;24.70;90.30
5806;DHT22;2929;50.810;8.342;2023-05-14T14:31:10;24.50;88.80
5806;DHT22;2929;50.810;8.342;2023-05-14T14:33:37;24.50;86.80
5806;DHT22;2929;50.810;8.342;2023-05-14T14:36:05;24.50;85.30
5806;DHT22;2929;50.810;8.342;2023-05-14T14:38:33;24.80;88.90
5806;DHT22;2929;50.810;8.342;2023-05-14T14:41:00;24.60;86.10
5806;DHT22;2929;50.810;8.342;2023-05-14T14:43:28;24.10;86.90
5806;DHT22;2929;50.810;8.342;2023-05-14T14:45:56;23.50;91.10
5806;DHT22;2929;50.810;8.342;2023-05-14T14:48:25;23.00;92.20
5806;DHT22;2929;50.810;8.342;2023-05-14T14:50:53;23.50;92.50
5806;DHT22;2929;50.810;8.342;2023-05-14T14:53:20;23.90;92.30
5806;DHT22;2929;50.810;8.342;2023-05-14T14:55:49;24.40;91.80
5806;DHT22;2929;50.810;8.342;2023-05-14T14:58:17;24.20;90.90
5806;DHT22;2929;50.810;8.342;2023-05-14T15:00:44;23.80;91.00
5806;DHT22;2929;50.810;8.342;2023-05-14T15:03:11;23.20;90.90
5806;DHT22;2929;50.810;8.342;2023-05-14T15:05:39;22.70;92.10
5806;DHT22;2929;50.810;8.342;2023-05-14T15:08:06;22.50;92.10
5806;DHT22;2929;50.810;8.342;2023-05-14T15:10:33;22.60;92.70
5806;DHT22;2929;50.810;8.342;2023-05-14T15:13:04;22.70;92.50
5806;DHT22;2929;50.810;8.342;2023-05-14T15:15:32;22.30;90.80
5806;DHT22;2929;50.810;8.342;2023-05-14T15:17:59;22.30;90.60
5806;DHT22;2929;50.810;8.342;2023-05-14T15:20:26;22.50;91.10
5806;DHT22;2929;50.810;8.342;2023-05-14T15:22:54;22.50;90.90
5806;DHT22;2929;50.810;8.342;2023-05-14T15:25:22;22.40;91.00
5806;DHT22;2929;50.810;8.342;2023-05-14T15:27:50;22.40;91.30
5806;DHT22;2929;50.810;8.342;2023-05-14T15:30:18;22.50;90.50
5806;DHT22;2929;50.810;8.342;2023-05-14T15:32:45;22.50;90.60
5806;DHT22;2929;50.810;8.342;2023-05-14T15:35:12;23.00;92.40
5806;DHT22;2929;50.810;8.342;2023-05-14T15:37:40;23.20;90.60
5806;DHT22;2929;50.810;8.342;2023-05-14T15:40:09;23.00;92.30
5806;DHT22;2929;50.810;8.342;2023-05-14T15:42:37;22.70;91.90
5806;DHT22;2929;50.810;8.342;2023-05-14T15:45:05;22.30;93.60
5806;DHT22;2929;50.810;8.342;2023-05-14T15:47:34;21.90;94.70
5806;DHT22;2929;50.810;8.342;2023-05-14T15:50:02;21.00;96.00
5806;DHT22;2929;50.810;8.342;2023-05-14T15:52:29;20.10;96.90
5806;DHT22;2929;50.810;8.342;2023-05-14T15:54:56;19.40;99.30
5806;DHT22;2929;50.810;8.342;2023-05-14T15:57:24;19.20;99.90
5806;DHT22;2929;50.810;8.342;2023-05-14T15:59:52;18.80;99.90
5806;DHT22;2929;50.810;8.342;2023-05-14T16:02:19;18.70;99.90
5806;DHT22;2929;50.810;8.342;2023-05-14T16:04:47;18.30;99.90
5806;DHT22;2929;50.810;8.342;2023-05-14T16:07:15;18.20;99.90
5806;DHT22;2929;50.810;8.342;2023-05-14T16:09:42;18.10;99.90
5806;DHT22;2929;50.810;8.342;2023-05-14T16:12:09;18.10;99.90